Time;durP1;ratioP1;P1;durP2;ratioP2;P2;SDS_P1;SDS_P2;PMS_P1;PMS_P2;Temp;Humidity;BMP_temperature;BMP_pressure;BME280_temperature;BME280_humidity;BME280_pressure;Samples;Min_cycle;Max_cycle;Signal;HPM_P1;HPM_P2
2023/01/15 00:01:34;;;;;;;32.88;17.92;;;;;;;2.39;100.00;93470.50;5060934;28;20057;-69
2023/01/15 00:04:05;;;;;;;31.42;17.13;;;;;;;2.33;100.00;93476.97;5053267;28;20103;-69
2023/01/15 00:06:36;;;;;;;29.05;17.10;;;;;;;2.34;100.00;93472.69;5052614;28;20045;-70
2023/01/15 00:09:04;;;;;;;27.98;16.88;;;;;;;2.44;100.00;93482.72;5063740;28;20123;-69
2023/01/15 00:11:31;;;;;;;30.33;17.25;;;;;;;2.51;100.00;93484.47;5057704;28;20497;-70
2023/01/15 00:13:58;;;;;;;30.20;18.10;;;;;;;2.62;100.00;93483.41;5052710;28;20045;-70
2023/01/15 00:16:26;;;;;;;31.38;16.63;;;;;;;2.71;100.00;93484.25;5070286;28;20044;-69
2023/01/15 00:18:54;;;;;;;31.58;18.70;;;;;;;2.70;100.00;93481.84;5068488;28;20044;-69
2023/01/15 00:21:23;;;;;;;26.48;16.08;;;;;;;2.77;100.00;93492.97;5068912;28;20086;-70
2023/01/15 00:29:21;;;;;;;28.65;16.33;;;;;;;2.68;100.00;93489.59;5070147;28;20416;-70
2023/01/15 00:31:53;;;;;;;29.40;16.45;;;;;;;2.39;100.00;93478.91;5070178;28;20037;-69
2023/01/15 00:34:20;;;;;;;30.60;17.35;;;;;;;2.46;100.00;93489.22;5070255;28;20040;-69
2023/01/15 00:36:48;;;;;;;27.42;15.80;;;;;;;2.45;100.00;93489.38;5070033;28;20489;-69
2023/01/15 00:39:15;;;;;;;27.38;16.17;;;;;;;2.48;100.00;93486.53;5070472;28;20049;-69
2023/01/15 00:41:41;;;;;;;24.15;14.38;;;;;;;2.33;100.00;93491.38;5069765;28;20048;-69
2023/01/15 00:44:08;;;;;;;23.05;13.30;;;;;;;2.24;100.00;93485.50;5070427;28;20040;-69
2023/01/15 00:46:36;;;;;;;23.08;13.90;;;;;;;2.22;100.00;93478.03;5070097;28;20102;-69
2023/01/15 00:49:03;;;;;;;24.10;13.77;;;;;;;2.34;100.00;93470.97;5070388;28;20044;-69
2023/01/15 00:51:29;;;;;;;23.90;14.23;;;;;;;2.25;100.00;93475.22;5070030;28;20093;-69
2023/01/15 00:53:57;;;;;;;31.15;15.82;;;;;;;2.23;100.00;93473.75;5070325;28;20036;-69
2023/01/15 00:56:24;;;;;;;28.52;16.25;;;;;;;2.16;100.00;93476.09;5065468;28;20098;-69
2023/01/15 00:58:51;;;;;;;30.98;16.75;;;;;;;2.07;100.00;93471.94;5069725;28;20121;-69
2023/01/15 01:01:18;;;;;;;29.92;17.40;;;;;;;2.11;100.00;93455.50;5069803;28;20048;-69
2023/01/15 01:03:47;;;;;;;25.05;16.20;;;;;;;2.22;100.00;93477.25;5064572;28;20094;-69
2023/01/15 01:06:15;;;;;;;28.83;15.88;;;;;;;2.16;100.00;93465.19;5069689;28;20090;-69
2023/01/15 01:08:42;;;;;;;31.45;19.95;;;;;;;2.11;100.00;93473.22;5070022;28;20386;-69
2023/01/15 01:11:13;;;;;;;27.88;15.93;;;;;;;2.26;100.00;93476.78;5069832;28;20106;-69
2023/01/15 01:13:39;;;;;;;28.63;15.68;;;;;;;2.37;100.00;93469.88;5069220;28;20090;-69
2023/01/15 01:16:22;;;;;;;28.90;16.90;;;;;;;2.50;100.00;93469.44;5069754;28;20044;-69
2023/01/15 01:18:52;;;;;;;26.85;15.82;;;;;;;2.62;100.00;93475.81;5069690;28;20093;-69
2023/01/15 01:21:19;;;;;;;26.95;15.73;;;;;;;2.61;100.00;93469.16;5069021;28;20052;-69
2023/01/15 01:23:46;;;;;;;26.27;15.85;;;;;;;2.50;100.00;93471.97;5069330;28;20040;-69
2023/01/15 01:26:14;;;;;;;27.00;15.30;;;;;;;2.52;100.00;93478.47;5069279;28;20496;-69
2023/01/15 01:28:41;;;;;;;24.40;16.10;;;;;;;2.53;100.00;93477.53;5070242;28;20450;-69
2023/01/15 01:31:08;;;;;;;24.23;15.30;;;;;;;2.50;100.00;93474.50;5069137;28;20089;-69
2023/01/15 01:33:35;;;;;;;26.88;16.00;;;;;;;2.60;100.00;93469.31;5069462;28;20223;-69
2023/01/15 01:36:02;;;;;;;23.30;15.00;;;;;;;2.63;100.00;93468.97;5069217;28;20063;-69
2023/01/15 01:38:29;;;;;;;25.05;15.50;;;;;;;2.67;100.00;93476.16;5069345;28;20049;-69
2023/01/15 01:40:56;;;;;;;25.85;14.85;;;;;;;2.54;100.00;93476.59;5069374;28;20044;-69
2023/01/15 01:43:26;;;;;;;19.60;13.20;;;;;;;2.43;100.00;93473.50;5063707;28;20455;-69
2023/01/15 01:45:53;;;;;;;21.10;12.48;;;;;;;2.19;100.00;93452.19;5069237;28;20134;-69
2023/01/15 01:48:25;;;;;;;21.70;12.93;;;;;;;2.26;100.00;93470.91;5068701;28;20040;-69
2023/01/15 01:50:56;;;;;;;21.27;12.93;;;;;;;2.27;100.00;93473.31;5068922;28;20080;-70
2023/01/15 01:53:27;;;;;;;20.58;13.07;;;;;;;2.18;100.00;93451.41;5063110;28;20498;-69
2023/01/15 01:55:56;;;;;;;20.73;12.60;;;;;;;2.26;100.00;93473.44;5068730;28;20078;-69
2023/01/15 01:58:28;;;;;;;20.80;12.98;;;;;;;2.24;100.00;93471.09;5068582;28;20078;-69
2023/01/15 02:00:56;;;;;;;19.10;11.90;;;;;;;2.33;100.00;93471.09;5068697;28;20090;-69
2023/01/15 02:03:27;;;;;;;21.83;13.15;;;;;;;2.17;100.00;93465.00;5068612;28;20048;-69
2023/01/15 02:05:58;;;;;;;22.48;13.35;;;;;;;2.10;100.00;93462.31;5068648;28;20550;-69
2023/01/15 02:08:25;;;;;;;22.30;12.75;;;;;;;2.08;100.00;93460.88;5068647;28;20048;-69
2023/01/15 02:10:54;;;;;;;23.98;14.13;;;;;;;2.19;100.00;93457.28;5068858;28;20044;-69
2023/01/15 02:13:30;;;;;;;20.60;12.65;;;;;;;2.11;100.00;93461.38;5068576;28;20090;-69
2023/01/15 02:16:03;;;;;;;18.92;12.90;;;;;;;2.28;100.00;93471.56;5068317;28;20056;-69
2023/01/15 02:18:35;;;;;;;23.17;13.55;;;;;;;2.30;100.00;93461.28;5068522;28;20058;-69
2023/01/15 02:21:10;;;;;;;22.88;13.25;;;;;;;2.31;100.00;93458.56;5068489;28;20174;-69
2023/01/15 02:24:06;;;;;;;18.40;11.63;;;;;;;2.24;100.00;93457.59;5068549;28;20524;-69
2023/01/15 02:27:07;;;;;;;18.50;11.90;;;;;;;2.03;100.00;93446.09;5066838;28;20293;-69
2023/01/15 02:29:44;;;;;;;22.50;13.80;;;;;;;2.00;100.00;93426.16;5068732;28;20114;-69
2023/01/15 02:32:18;;;;;;;19.17;13.23;;;;;;;2.32;100.00;93461.91;5068763;28;20101;-69
2023/01/15 02:34:50;;;;;;;26.40;17.75;;;;;;;2.23;100.00;93458.56;5065684;28;20093;-68
2023/01/15 02:37:24;;;;;;;18.70;14.05;;;;;;;2.08;100.00;93453.28;5068277;28;20106;-69
2023/01/15 02:39:52;;;;;;;20.52;13.45;;;;;;;1.95;100.00;93433.41;5068799;28;20044;-69
2023/01/15 02:42:21;;;;;;;18.13;13.32;;;;;;;2.13;100.00;93451.06;5068236;28;20044;-69
2023/01/15 02:44:52;;;;;;;24.20;15.02;;;;;;;2.22;100.00;93457.75;5068283;28;20041;-69
2023/01/15 02:47:23;;;;;;;24.10;14.55;;;;;;;2.23;100.00;93456.03;5068294;28;20417;-69
2023/01/15 02:49:51;;;;;;;20.75;13.55;;;;;;;2.29;100.00;93455.41;5068256;28;20040;-69
2023/01/15 02:52:23;;;;;;;21.20;13.98;;;;;;;2.11;100.00;93456.28;5068400;28;20094;-69
2023/01/15 02:54:54;;;;;;;22.67;14.65;;;;;;;2.05;100.00;93456.09;5068131;28;20497;-69
2023/01/15 02:57:25;;;;;;;20.55;13.27;;;;;;;1.94;100.00;93463.00;5068022;28;20110;-69
2023/01/15 02:59:56;;;;;;;20.90;13.95;;;;;;;2.02;100.00;93459.72;5068251;28;20041;-69
2023/01/15 03:02:27;;;;;;;22.58;14.73;;;;;;;1.86;100.00;93462.97;5063093;28;20052;-68
2023/01/15 03:05:00;;;;;;;21.77;14.43;;;;;;;1.97;100.00;93460.19;5068519;28;20512;-68
2023/01/15 03:07:32;;;;;;;24.67;17.48;;;;;;;1.81;100.00;93460.09;5072297;28;20040;-69
2023/01/15 03:09:59;;;;;;;22.05;13.93;;;;;;;1.74;100.00;93464.94;5072028;28;20059;-69
2023/01/15 03:12:32;;;;;;;25.30;15.23;;;;;;;1.56;100.00;93445.53;5071824;28;20036;-69
2023/01/15 03:15:08;;;;;;;21.15;13.98;;;;;;;1.73;100.00;93458.31;5071698;28;20090;-69
2023/01/15 03:17:37;;;;;;;24.58;14.18;;;;;;;1.75;100.00;93460.69;5071720;28;20047;-69
2023/01/15 03:20:11;;;;;;;21.65;14.27;;;;;;;1.90;100.00;93461.72;5072031;28;20087;-69
2023/01/15 03:22:44;;;;;;;23.88;14.00;;;;;;;1.97;100.00;93457.66;5071280;28;20048;-69
2023/01/15 03:25:15;;;;;;;24.48;15.30;;;;;;;1.80;100.00;93458.50;5072502;28;20113;-69
2023/01/15 03:27:41;;;;;;;26.48;16.13;;;;;;;1.83;100.00;93456.47;5072087;28;20041;-69
2023/01/15 03:30:18;;;;;;;27.00;15.77;;;;;;;1.93;100.00;93451.28;5071697;28;20158;-69
2023/01/15 03:32:45;;;;;;;23.67;15.73;;;;;;;2.10;100.00;93442.03;5071508;28;20067;-69
2023/01/15 03:35:48;;;;;;;24.80;14.93;;;;;;;2.13;100.00;93453.63;5071735;28;20041;-69
2023/01/15 03:38:17;;;;;;;21.73;14.32;;;;;;;2.18;100.00;93453.16;5066356;28;20036;-69
2023/01/15 03:40:53;;;;;;;24.85;15.25;;;;;;;2.22;100.00;93449.38;5071478;28;20052;-69
2023/01/15 03:43:42;;;;;;;24.90;15.25;;;;;;;2.28;100.00;93433.56;5071006;28;20050;-69
2023/01/15 03:46:18;;;;;;;26.80;16.10;;;;;;;2.39;100.00;93456.09;5071216;28;20040;-69
2023/01/15 03:48:55;;;;;;;26.13;15.80;;;;;;;2.45;100.00;93448.81;5071108;28;20045;-69
2023/01/15 03:51:30;;;;;;;24.88;15.40;;;;;;;2.51;100.00;93446.44;5071113;28;20040;-69
2023/01/15 03:53:59;;;;;;;22.27;15.02;;;;;;;2.28;100.00;93410.75;5071211;28;20044;-69
2023/01/15 03:56:34;;;;;;;24.67;15.02;;;;;;;2.61;100.00;93443.00;5071065;28;20041;-69
2023/01/15 03:59:08;;;;;;;26.33;15.48;;;;;;;2.62;100.00;93439.50;5070647;28;20078;-70
2023/01/15 04:01:39;;;;;;;23.23;15.13;;;;;;;2.70;100.00;93446.34;5071168;28;20101;-69
2023/01/15 04:04:07;;;;;;;25.35;15.40;;;;;;;2.72;100.00;93447.78;5070761;28;20048;-69
2023/01/15 04:06:38;;;;;;;26.63;15.80;;;;;;;2.65;100.00;93444.28;5070807;28;20562;-69
2023/01/15 04:09:08;;;;;;;25.08;16.05;;;;;;;2.67;100.00;93444.91;5070990;28;20040;-69
2023/01/15 04:11:35;;;;;;;25.45;15.63;;;;;;;2.71;100.00;93446.19;5071066;28;20053;-69
2023/01/15 04:14:01;;;;;;;23.20;14.57;;;;;;;2.74;100.00;93445.09;5071249;28;20048;-69
2023/01/15 04:16:30;;;;;;;23.55;14.85;;;;;;;2.75;100.00;93444.13;5070013;28;20110;-69
2023/01/15 04:18:59;;;;;;;24.10;14.05;;;;;;;2.75;100.00;93444.94;5070635;28;20625;-69
2023/01/15 04:21:26;;;;;;;24.52;14.25;;;;;;;2.80;100.00;93440.19;5070540;28;20546;-69
2023/01/15 04:23:53;;;;;;;24.38;14.63;;;;;;;2.82;100.00;93446.84;5070384;28;20455;-69
2023/01/15 04:26:19;;;;;;;21.77;13.88;;;;;;;2.83;100.00;93449.25;5070132;28;20041;-69
2023/01/15 04:28:46;;;;;;;21.38;13.88;;;;;;;2.77;100.00;93450.63;5070669;28;20110;-69
2023/01/15 04:31:13;;;;;;;23.10;14.45;;;;;;;2.77;100.00;93450.63;5070454;28;20067;-69
2023/01/15 04:33:40;;;;;;;24.23;14.60;;;;;;;2.79;100.00;93453.81;5070369;28;20450;-70
2023/01/15 04:36:08;;;;;;;23.90;14.73;;;;;;;2.75;100.00;93444.13;5070235;28;20040;-69
2023/01/15 04:38:36;;;;;;;23.38;14.77;;;;;;;2.82;100.00;93447.63;5070607;28;20495;-69
2023/01/15 04:44:06;;;;;;;27.17;17.67;;;;;;;2.68;100.00;93436.34;5070239;28;20135;-69
2023/01/15 04:46:34;;;;;;;31.70;19.85;;;;;;;2.72;100.00;93454.59;5070452;28;20044;-69
2023/01/15 04:49:01;;;;;;;32.92;20.20;;;;;;;2.72;100.00;93457.91;5063488;28;20092;-69
2023/01/15 04:51:29;;;;;;;32.65;19.50;;;;;;;2.73;100.00;93454.44;5058163;28;20462;-69
2023/01/15 04:53:56;;;;;;;29.33;19.73;;;;;;;2.75;100.00;93457.63;5069376;28;20463;-70
2023/01/15 04:56:22;;;;;;;30.70;17.90;;;;;;;2.75;100.00;93460.16;5070302;28;20048;-69
2023/01/15 04:58:49;;;;;;;33.10;19.42;;;;;;;2.75;100.00;93451.75;5069687;28;20570;-69
2023/01/15 05:01:18;;;;;;;29.58;18.30;;;;;;;2.51;100.00;93412.69;5069881;28;20045;-69
2023/01/15 05:03:44;;;;;;;25.38;15.80;;;;;;;2.42;100.00;93398.41;5070056;28;20044;-69
2023/01/15 05:06:13;;;;;;;23.35;14.85;;;;;;;2.76;100.00;93443.19;5070283;28;20102;-69
2023/01/15 05:08:41;;;;;;;24.48;14.25;;;;;;;2.73;100.00;93453.66;5069851;28;20067;-69
2023/01/15 05:11:08;;;;;;;23.30;14.90;;;;;;;2.73;100.00;93446.81;5069518;28;20546;-69
2023/01/15 05:13:35;;;;;;;24.30;14.90;;;;;;;2.71;100.00;93447.91;5069812;28;20076;-69
2023/01/15 05:16:10;;;;;;;31.23;18.70;;;;;;;2.67;100.00;93438.09;5069830;28;20389;-69
2023/01/15 05:18:36;;;;;;;27.85;17.42;;;;;;;2.67;100.00;93447.44;5069385;28;20621;-69
2023/01/15 05:21:04;;;;;;;27.45;16.48;;;;;;;2.62;100.00;93447.09;5069006;28;20110;-70
2023/01/15 05:23:31;;;;;;;24.63;15.45;;;;;;;2.58;100.00;93453.47;5051799;28;20053;-70
2023/01/15 05:26:03;;;;;;;26.02;15.63;;;;;;;2.48;100.00;93446.78;5065737;28;20057;-70
2023/01/15 05:28:29;;;;;;;25.55;15.50;;;;;;;2.52;100.00;93457.41;5051366;28;20531;-70
2023/01/15 05:30:56;;;;;;;25.67;14.82;;;;;;;2.47;100.00;93454.53;5060078;28;20091;-69
2023/01/15 05:33:23;;;;;;;26.42;16.17;;;;;;;2.43;100.00;93459.09;5060097;28;20052;-69
2023/01/15 05:35:50;;;;;;;27.83;15.90;;;;;;;2.35;100.00;93452.25;5069531;28;20048;-69
2023/01/15 05:38:16;;;;;;;28.05;16.15;;;;;;;2.35;100.00;93451.47;5069454;28;20515;-69
2023/01/15 05:40:43;;;;;;;30.25;16.05;;;;;;;2.32;100.00;93459.38;5069648;28;20578;-69
2023/01/15 05:43:11;;;;;;;27.35;16.92;;;;;;;2.27;100.00;93462.38;5056451;28;20105;-69
2023/01/15 05:45:38;;;;;;;33.38;21.17;;;;;;;2.16;100.00;93455.06;5069161;28;20535;-69
2023/01/15 05:48:05;;;;;;;45.08;27.10;;;;;;;2.04;100.00;93454.50;5069354;28;20042;-69
2023/01/15 05:50:32;;;;;;;43.28;29.15;;;;;;;2.03;100.00;93463.06;5069501;28;20044;-69
2023/01/15 05:52:58;;;;;;;30.33;19.40;;;;;;;1.94;100.00;93457.16;5069416;28;20049;-69
2023/01/15 05:55:25;;;;;;;27.85;18.75;;;;;;;1.83;100.00;93464.06;5064954;28;20056;-69
2023/01/15 05:57:52;;;;;;;31.55;20.00;;;;;;;1.84;100.00;93453.00;5051526;28;20637;-69
2023/01/15 06:00:21;;;;;;;36.20;22.70;;;;;;;1.81;100.00;93458.34;5050363;28;20052;-69
2023/01/15 06:02:49;;;;;;;39.45;25.15;;;;;;;1.69;100.00;93465.41;5068390;28;20044;-69
2023/01/15 06:05:18;;;;;;;38.00;24.38;;;;;;;1.58;100.00;93458.84;5069297;28;20067;-69
2023/01/15 06:07:48;;;;;;;43.17;25.23;;;;;;;1.45;100.00;93463.50;5069214;28;20049;-69
2023/01/15 06:10:16;;;;;;;40.78;25.42;;;;;;;1.39;100.00;93461.56;5069136;28;20048;-69
2023/01/15 06:12:42;;;;;;;39.15;23.10;;;;;;;1.20;100.00;93453.97;5068878;28;20052;-69
2023/01/15 06:15:11;;;;;;;39.30;24.60;;;;;;;1.22;100.00;93456.38;5069046;28;20090;-69
2023/01/15 06:17:39;;;;;;;37.88;22.75;;;;;;;1.28;100.00;93445.66;5069143;28;20048;-69
2023/01/15 06:20:06;;;;;;;38.65;24.60;;;;;;;1.37;100.00;93449.03;5069158;28;20048;-69
2023/01/15 06:22:33;;;;;;;43.88;25.42;;;;;;;1.41;100.00;93447.81;5068724;28;20044;-69
2023/01/15 06:25:00;;;;;;;57.55;32.88;;;;;;;1.45;100.00;93448.31;5068782;28;20052;-69
2023/01/15 06:27:28;;;;;;;56.97;33.17;;;;;;;1.46;100.00;93443.09;5068800;28;20094;-69
2023/01/15 06:29:56;;;;;;;50.38;31.17;;;;;;;1.50;100.00;93440.25;5065501;28;20083;-70
2023/01/15 06:32:23;;;;;;;51.92;32.55;;;;;;;1.50;100.00;93447.84;5063085;28;20053;-70
2023/01/15 06:34:51;;;;;;;46.47;28.45;;;;;;;1.42;100.00;93434.22;5067572;28;20048;-70
2023/01/15 06:37:18;;;;;;;31.65;19.42;;;;;;;1.49;100.00;93452.16;5068638;28;20102;-70
2023/01/15 06:39:44;;;;;;;35.58;20.75;;;;;;;1.45;100.00;93453.38;5069273;28;20049;-70
2023/01/15 06:47:52;;;;;;;32.47;18.13;;;;;;;1.35;100.00;93465.31;5067858;28;19928;-70
2023/01/15 06:50:20;;;;;;;33.65;19.58;;;;;;;1.35;100.00;93455.19;5072129;28;20061;-70
2023/01/15 06:52:47;;;;;;;37.13;23.58;;;;;;;1.02;100.00;93403.38;5072852;28;20436;-70
2023/01/15 06:55:14;;;;;;;56.80;32.15;;;;;;;1.40;100.00;93461.41;5071867;28;20041;-70
2023/01/15 06:57:41;;;;;;;55.30;34.33;;;;;;;1.44;100.00;93450.03;5072105;28;20505;-70
2023/01/15 07:00:09;;;;;;;55.15;33.63;;;;;;;1.45;100.00;93450.84;5072337;28;20623;-70
2023/01/15 07:02:36;;;;;;;59.22;33.20;;;;;;;1.52;100.00;93463.72;5072265;28;20524;-70
2023/01/15 07:05:03;;;;;;;62.08;36.45;;;;;;;1.44;100.00;93439.91;5071954;28;20094;-70
2023/01/15 07:07:31;;;;;;;69.80;37.63;;;;;;;1.63;100.00;93462.66;5072611;28;20075;-70
2023/01/15 07:10:13;;;;;;;51.03;34.25;;;;;;;1.68;100.00;93461.28;5072007;28;20088;-70
2023/01/15 07:12:40;;;;;;;56.13;37.50;;;;;;;1.75;100.00;93465.75;5072091;28;20040;-70
2023/01/15 07:15:35;;;;;;;58.03;39.22;;;;;;;1.68;100.00;93443.56;5071640;28;20110;-70
2023/01/15 07:18:04;;;;;;;62.42;39.72;;;;;;;1.81;100.00;93460.09;5071625;28;20048;-70
2023/01/15 07:20:31;;;;;;;68.68;42.60;;;;;;;1.99;100.00;93470.19;5071613;28;20092;-70
2023/01/15 07:23:02;;;;;;;67.25;40.63;;;;;;;2.08;100.00;93469.25;5072323;28;20125;-70
2023/01/15 07:25:29;;;;;;;59.30;38.40;;;;;;;2.19;100.00;93477.53;5071674;28;20115;-70
2023/01/15 07:27:55;;;;;;;58.97;37.58;;;;;;;2.31;100.00;93483.16;5072203;28;20048;-70
2023/01/15 07:30:22;;;;;;;55.40;36.03;;;;;;;2.40;100.00;93475.41;5068754;28;20097;-70
2023/01/15 07:32:49;;;;;;;59.70;39.85;;;;;;;2.42;100.00;93464.31;5071794;28;20603;-70
2023/01/15 07:35:16;;;;;;;54.75;36.72;;;;;;;2.57;100.00;93475.47;5067470;28;20045;-70
2023/01/15 07:37:42;;;;;;;54.72;36.33;;;;;;;2.71;100.00;93474.09;5062841;28;20045;-71
2023/01/15 07:40:12;;;;;;;54.95;34.25;;;;;;;2.80;100.00;93482.50;5071552;28;20489;-70
2023/01/15 07:50:54;;;;;;;35.13;21.10;;;;;;;3.23;100.00;93474.03;5061650;28;20400;-71
2023/01/15 07:53:21;;;;;;;32.22;19.38;;;;;;;3.39;100.00;93479.13;5070457;28;20094;-71
2023/01/15 07:55:49;;;;;;;28.13;17.88;;;;;;;3.47;100.00;93468.94;5071576;28;20497;-71
2023/01/15 07:58:16;;;;;;;29.77;17.95;;;;;;;3.65;100.00;93469.75;5071564;28;20102;-71
2023/01/15 08:00:42;;;;;;;29.05;16.60;;;;;;;3.83;100.00;93462.72;5071730;28;20044;-70
2023/01/15 08:03:09;;;;;;;26.58;15.82;;;;;;;3.97;100.00;93470.63;5071240;28;20048;-71
2023/01/15 08:05:36;;;;;;;26.80;14.88;;;;;;;4.07;100.00;93473.78;5062788;28;20040;-71
2023/01/15 08:08:03;;;;;;;20.65;12.90;;;;;;;4.19;100.00;93474.25;5071599;28;20053;-71
2023/01/15 08:10:29;;;;;;;23.98;13.05;;;;;;;4.26;100.00;93484.56;5059576;28;20492;-70
2023/01/15 08:15:42;;;;;;;22.42;12.82;;;;;;;4.38;100.00;93495.16;5070840;28;20067;-71
2023/01/15 08:18:09;;;;;;;21.90;12.85;;;;;;;4.31;100.00;93494.22;5067014;28;20045;-70
2023/01/15 08:20:36;;;;;;;22.55;11.88;;;;;;;4.50;100.00;93498.91;5061039;28;20044;-70
2023/01/15 08:23:03;;;;;;;20.23;10.68;;;;;;;4.65;100.00;93499.03;5069945;28;20049;-71
2023/01/15 08:25:30;;;;;;;19.50;11.50;;;;;;;4.70;100.00;93490.91;5070247;28;20044;-71
2023/01/15 08:28:01;;;;;;;22.23;10.57;;;;;;;5.00;100.00;93508.09;5067014;28;20063;-71
2023/01/15 08:30:27;;;;;;;19.42;11.30;;;;;;;5.18;100.00;93498.44;5059439;28;20118;-70
2023/01/15 08:32:59;;;;;;;18.45;10.20;;;;;;;5.36;100.00;93510.09;5061726;28;20535;-71
2023/01/15 08:35:26;;;;;;;19.92;10.82;;;;;;;5.30;100.00;93508.22;5070776;28;20400;-70
2023/01/15 08:37:53;;;;;;;19.63;10.77;;;;;;;5.31;100.00;93500.44;5071171;28;20040;-70
2023/01/15 08:40:19;;;;;;;23.92;12.60;;;;;;;5.29;100.00;93476.09;5070299;28;20435;-70
2023/01/15 08:42:46;;;;;;;20.90;12.05;;;;;;;5.47;100.00;93503.81;5070708;28;20121;-70
2023/01/15 08:45:14;;;;;;;21.92;12.13;;;;;;;5.33;100.00;93500.25;5069400;28;20057;-70
2023/01/15 08:47:41;;;;;;;25.00;12.40;;;;;;;5.48;100.00;93487.56;5070590;28;20044;-71
2023/01/15 08:50:09;;;;;;;30.15;13.25;;;;;;;5.55;100.00;93490.22;5069719;28;20622;-70
2023/01/15 08:52:37;;;;;;;29.75;13.25;;;;;;;5.67;100.00;93483.75;5061819;28;20534;-70
2023/01/15 08:55:04;;;;;;;30.70;17.27;;;;;;;5.74;100.00;93469.34;5067729;28;20094;-70
2023/01/15 08:57:31;;;;;;;16.77;10.45;;;;;;;5.89;100.00;93478.78;5069693;28;20630;-70
2023/01/15 08:59:58;;;;;;;24.67;16.20;;;;;;;5.92;100.00;93483.53;5068698;28;20052;-70
2023/01/15 09:02:28;;;;;;;24.17;12.65;;;;;;;5.99;100.00;93488.72;5069082;28;20098;-70
2023/01/15 09:04:54;;;;;;;26.92;12.63;;;;;;;6.08;100.00;93474.16;5067050;28;20405;-70
2023/01/15 09:07:21;;;;;;;35.08;20.17;;;;;;;6.18;100.00;93481.56;5070367;28;20048;-70
2023/01/15 09:09:48;;;;;;;24.73;15.13;;;;;;;6.24;100.00;93468.91;5068736;28;20045;-70
2023/01/15 09:12:14;;;;;;;45.92;29.88;;;;;;;6.30;100.00;93479.38;5069994;28;20466;-70
2023/01/15 09:14:41;;;;;;;30.80;18.13;;;;;;;6.30;100.00;93471.72;5069984;28;20505;-70
2023/01/15 09:17:08;;;;;;;37.75;22.70;;;;;;;6.38;100.00;93466.50;5070001;28;20045;-70
2023/01/15 09:19:36;;;;;;;30.17;15.93;;;;;;;6.40;100.00;93469.69;5070002;28;20049;-70
2023/01/15 09:22:02;;;;;;;22.60;13.88;;;;;;;6.34;100.00;93450.75;5065566;28;20044;-70
2023/01/15 09:24:29;;;;;;;21.88;14.45;;;;;;;6.41;100.00;93469.53;5063180;28;20504;-70
2023/01/15 09:26:56;;;;;;;17.10;10.70;;;;;;;6.49;100.00;93462.72;5070188;28;20079;-70
2023/01/15 09:29:23;;;;;;;18.52;10.80;;;;;;;6.58;100.00;93456.56;5069883;28;20049;-70
2023/01/15 09:31:49;;;;;;;20.02;12.70;;;;;;;6.54;100.00;93455.34;5066358;28;20052;-70
2023/01/15 09:34:16;;;;;;;27.20;11.52;;;;;;;6.53;100.00;93438.44;5069866;28;20463;-70
2023/01/15 09:36:45;;;;;;;25.88;14.30;;;;;;;6.71;100.00;93452.56;5068148;28;20052;-71
2023/01/15 09:39:12;;;;;;;27.75;16.02;;;;;;;6.67;100.00;93441.94;5059341;28;20094;-71
2023/01/15 09:42:06;;;;;;;46.58;27.35;;;;;;;6.64;100.00;93437.19;5069486;28;20090;-71
2023/01/15 09:44:41;;;;;;;20.73;12.73;;;;;;;6.54;100.00;93429.81;5069514;28;20048;-71
2023/01/15 09:47:18;;;;;;;15.93;9.63;;;;;;;6.50;100.00;93406.41;5069776;28;20079;-71
2023/01/15 09:50:06;;;;;;;21.48;13.82;;;;;;;6.60;100.00;93418.88;5069446;28;20109;-71
2023/01/15 09:52:52;;;;;;;15.93;9.95;;;;;;;6.73;100.00;93422.53;5069332;28;20052;-71
2023/01/15 09:55:22;;;;;;;38.15;24.48;;;;;;;6.77;100.00;93416.88;5048184;28;20045;-71
2023/01/15 09:57:54;;;;;;;20.92;12.77;;;;;;;6.89;100.00;93411.34;5068825;28;20570;-71
2023/01/15 10:00:22;;;;;;;57.55;28.00;;;;;;;6.95;100.00;93401.16;5068910;28;20040;-71
2023/01/15 10:02:54;;;;;;;32.28;15.93;;;;;;;6.99;100.00;93393.91;5069519;28;20041;-71
2023/01/15 10:05:26;;;;;;;10.60;7.10;;;;;;;6.89;100.00;93390.91;5068806;28;20054;-71
2023/01/15 10:08:00;;;;;;;86.03;35.60;;;;;;;6.97;100.00;93375.44;5069154;28;20045;-71
2023/01/15 10:10:33;;;;;;;74.90;31.38;;;;;;;7.11;100.00;93378.91;5068807;28;20053;-70
2023/01/15 10:13:07;;;;;;;45.00;20.98;;;;;;;7.14;100.00;93367.53;5057732;28;20056;-70
2023/01/15 10:15:40;;;;;;;56.30;24.83;;;;;;;7.14;100.00;93357.31;5044809;28;20132;-71
2023/01/15 10:18:07;;;;;;;20.27;10.50;;;;;;;7.24;100.00;93352.69;5061195;28;20390;-71
2023/01/15 10:20:51;;;;;;;121.32;46.97;;;;;;;7.27;100.00;93348.97;5069013;28;20048;-71
2023/01/15 10:23:34;;;;;;;172.52;64.55;;;;;;;7.28;100.00;93343.69;5068613;28;20049;-71
2023/01/15 10:26:07;;;;;;;52.65;22.52;;;;;;;7.33;100.00;93341.31;5068979;28;20052;-71
2023/01/15 10:28:57;;;;;;;57.20;25.73;;;;;;;7.37;100.00;93339.22;5068930;28;20113;-71
2023/01/15 10:31:36;;;;;;;30.52;13.43;;;;;;;7.42;100.00;93331.78;5053415;28;20095;-71
2023/01/15 10:34:23;;;;;;;22.50;12.27;;;;;;;7.51;100.00;93326.50;5056697;28;20052;-71
2023/01/15 10:36:55;;;;;;;56.92;27.38;;;;;;;7.54;100.00;93321.81;5068451;28;20481;-71
2023/01/15 10:39:36;;;;;;;25.55;14.15;;;;;;;7.52;100.00;93311.00;5068666;28;20527;-71
2023/01/15 10:42:17;;;;;;;21.35;11.85;;;;;;;7.57;100.00;93312.97;5069104;28;20048;-71
2023/01/15 10:44:52;;;;;;;9.77;6.65;;;;;;;7.55;100.00;93302.94;5068761;28;20113;-71
2023/01/15 10:47:26;;;;;;;13.35;7.88;;;;;;;7.66;100.00;93304.19;5068472;28;20052;-71
2023/01/15 10:49:53;;;;;;;12.68;7.28;;;;;;;7.53;100.00;93296.44;5068793;28;20052;-71
2023/01/15 10:52:25;;;;;;;28.33;14.23;;;;;;;7.53;100.00;93294.66;5068419;28;20048;-71
2023/01/15 10:54:56;;;;;;;15.35;9.10;;;;;;;7.56;100.00;93294.31;5055702;28;20049;-71
2023/01/15 10:57:29;;;;;;;15.93;9.88;;;;;;;7.66;100.00;93288.84;5068608;28;20398;-71
2023/01/15 10:59:58;;;;;;;37.15;18.98;;;;;;;7.77;100.00;93290.06;5058804;28;20050;-71
2023/01/15 11:02:30;;;;;;;14.00;9.23;;;;;;;7.68;100.00;93284.31;5048073;28;20111;-71
2023/01/15 11:04:56;;;;;;;12.35;7.20;;;;;;;7.66;100.00;93276.06;5063421;28;20097;-71
2023/01/15 11:07:36;;;;;;;29.58;14.35;;;;;;;7.72;100.00;93272.75;5068464;28;20044;-71
2023/01/15 11:10:09;;;;;;;20.83;12.38;;;;;;;7.74;100.00;93270.78;5067925;28;20055;-71
2023/01/15 11:21:00;;;;;;;36.58;20.48;;;;;;;7.99;100.00;93256.69;5064912;28;20064;-71
2023/01/15 11:23:27;;;;;;;20.30;12.20;;;;;;;7.96;100.00;93251.97;5058533;28;20048;-71
2023/01/15 11:25:57;;;;;;;22.88;13.55;;;;;;;7.98;100.00;93257.69;5068483;28;20493;-71
2023/01/15 11:28:34;;;;;;;20.40;11.60;;;;;;;7.95;100.00;93233.28;5072167;28;20044;-71
2023/01/15 11:31:01;;;;;;;18.13;10.50;;;;;;;8.08;100.00;93249.63;5068623;28;20053;-71
2023/01/15 11:33:30;;;;;;;37.67;23.50;;;;;;;8.18;100.00;93254.41;5071249;28;20513;-71
2023/01/15 11:35:59;;;;;;;18.73;11.82;;;;;;;8.10;100.00;93227.22;5071948;28;20560;-71
2023/01/15 11:38:27;;;;;;;54.47;31.65;;;;;;;8.23;100.00;93237.47;5071773;28;20106;-71
2023/01/15 11:40:58;;;;;;;19.55;12.15;;;;;;;8.19;100.00;93236.28;5072093;28;20534;-72
2023/01/15 11:51:57;;;;;;;19.70;12.30;;;;;;;8.30;100.00;93224.69;5047348;28;20074;-71
2023/01/15 11:54:26;;;;;;;36.75;19.42;;;;;;;8.31;100.00;93226.28;5058818;28;20515;-71
2023/01/15 11:56:55;;;;;;;37.50;18.88;;;;;;;8.35;100.00;93213.88;5071612;28;20044;-71
2023/01/15 11:59:23;;;;;;;35.00;17.92;;;;;;;8.37;100.00;93205.00;5071272;28;20049;-71
2023/01/15 12:01:58;;;;;;;39.50;19.75;;;;;;;8.43;100.00;93208.56;5070947;28;20037;-71
2023/01/15 12:04:38;;;;;;;24.25;12.73;;;;;;;8.48;100.00;93213.88;5071539;28;20134;-71
2023/01/15 12:07:06;;;;;;;29.20;14.13;;;;;;;8.29;100.00;93202.66;5070870;28;20040;-71
2023/01/15 12:09:49;;;;;;;42.38;21.05;;;;;;;8.36;100.00;93216.25;5071102;28;20558;-71
2023/01/15 12:12:28;;;;;;;12.55;7.80;;;;;;;8.31;100.00;93210.13;5071310;28;20056;-71